Monticello Municipal Ellis Field
KLLQ : rendu visible

Aérodrome :











RETROUVEZ-NOUS SUR...

 
LOGIN :

S'inscrire | Disclaimer

   EN    FR    IT 

 









Légende :    VFR   VFR Marginal   IFR   IFR Intensif   IFR Très Intensif
Visi : 
Plafond : 
>= 8 km
>= 3000ft
5 à 8 km
1000 à 3000 ft
1500m à 5 km
500 à 1000 ft
800 à 1500m
200 à 500 ft
< 800m
< 200 ft
Symboles :   Orages  Brouillard  Fortes neiges  Fortes précipitations  Vent > 20 kt






- Altitude de l'aérodrome : 270 ft


KLLQ - Monticello Municipal Ellis Field

DERNIER METAR :
  • 201853Z AUTO VRB05KT 10SM CLR 22/04 A3011 RMK AO2 SLP193 T02220044

METARs EXPIRÉS :
  • 201753Z AUTO 14007KT 10SM CLR 19/04 A3014 RMK AO2 SLP204 T01940044 10200 20061 58006
  • 201653Z AUTO 17009KT 10SM CLR 20/03 A3016 RMK AO2 SLP211 T02000033

TAF KLLQ
Valide du 20 à 18h jusqu'au 21 à 18h UTC


201720Z 2018/2118 17009KT P6SM SCT120 BKN250
FM210900 18010KT P6SM OVC050
FM211400 20008KT P6SM VCSH OVC040



MET'MAP, la Météo Aéronautique d'un coup d'oeil ! - Copyright ORBIFLY Décembre 2007 - Disclaimer

ORBIFLY MET'MAP TEAM :

Programmation & Développement : Alexandra Zaïnal
Conception & Développement : Baudouin d'Aumeries
Co-Programmation & Développement : Marc-Olivier Méhu
Soutien technique & logistique : Manuel Goepfert

Contact : metmap@orbifly.com




SOURCES & CREDITS :

   NOAA       Earth
Advisory